Time;durP1;ratioP1;P1;durP2;ratioP2;P2;SDS_P1;SDS_P2;PMS_P1;PMS_P2;Temp;Humidity;BMP_temperature;BMP_pressure;BME280_temperature;BME280_humidity;BME280_pressure;Samples;Min_cycle;Max_cycle;Signal;HPM_P1;HPM_P2
2023/12/17 00:05:53;;;;;;;1.52;0.75;;;-2.20;99.90;;;;;;21079973;28;20039;-62
2023/12/17 00:15:55;;;;;;;0.90;0.60;;;-2.00;99.90;;;;;;21062741;28;20047;-51
2023/12/17 00:25:57;;;;;;;3.92;1.17;;;-1.90;99.90;;;;;;21033453;28;20098;-51
2023/12/17 00:35:59;;;;;;;1.20;0.50;;;-1.80;99.90;;;;;;21061098;28;20295;-57
2023/12/17 00:46:00;;;;;;;1.83;0.30;;;-1.90;99.90;;;;;;21064463;28;20085;-62
2023/12/17 00:56:02;;;;;;;1.35;0.60;;;-0.40;99.90;;;;;;21070589;28;20032;-51
2023/12/17 01:06:04;;;;;;;0.82;0.22;;;-0.70;99.90;;;;;;21069006;28;20036;-62
2023/12/17 01:16:06;;;;;;;5.28;0.68;;;-0.70;99.90;;;;;;21023639;28;20085;-62
2023/12/17 01:26:08;;;;;;;3.95;0.60;;;0.10;99.90;;;;;;21068117;28;20057;-62
2023/12/17 01:36:10;;;;;;;0.80;0.45;;;-0.60;99.90;;;;;;21071074;28;20439;-62
2023/12/17 01:46:13;;;;;;;1.60;0.80;;;-1.30;99.90;;;;;;21024720;28;20039;-52
2023/12/17 01:56:18;;;;;;;1.35;0.60;;;-1.20;99.90;;;;;;21065964;28;20036;-50
2023/12/17 02:06:20;;;;;;;1.15;0.52;;;-1.30;99.90;;;;;;21074694;28;20027;-54
2023/12/17 02:16:22;;;;;;;0.43;0.20;;;-1.30;99.90;;;;;;21034609;28;20078;-59
2023/12/17 02:26:24;;;;;;;0.60;0.28;;;-1.30;99.90;;;;;;21026326;28;20033;-62
2023/12/17 02:36:26;;;;;;;1.75;1.00;;;-1.00;99.90;;;;;;21002315;28;20032;-56
2023/12/17 02:46:27;;;;;;;0.95;0.50;;;-0.90;99.90;;;;;;20989855;28;20093;-62
2023/12/17 02:56:29;;;;;;;2.38;0.50;;;-1.00;99.90;;;;;;20988200;28;20024;-56
2023/12/17 03:06:31;;;;;;;1.45;0.30;;;-1.10;99.90;;;;;;20986319;28;20032;-49
2023/12/17 03:16:33;;;;;;;0.77;0.40;;;-0.40;99.90;;;;;;20974345;28;20095;-63
2023/12/17 03:26:34;;;;;;;1.10;0.32;;;0.20;99.90;;;;;;21006774;28;20052;-59
2023/12/17 03:36:36;;;;;;;0.00;0.00;;;0.40;99.90;;;;;;21085791;28;20024;-60
2023/12/17 03:46:38;;;;;;;0.22;0.00;;;0.30;99.90;;;;;;21027772;28;20563;-62
2023/12/17 03:56:46;;;;;;;0.55;0.00;;;1.30;99.90;;;;;;20998783;28;20567;-63
2023/12/17 04:06:48;;;;;;;0.10;0.00;;;1.80;99.90;;;;;;20998974;28;20029;-61
2023/12/17 04:16:50;;;;;;;0.05;0.00;;;2.20;99.90;;;;;;20999645;28;20033;-61
2023/12/17 04:26:52;;;;;;;0.00;0.00;;;2.30;99.90;;;;;;20966594;28;20044;-62
2023/12/17 04:36:55;;;;;;;0.10;0.00;;;2.20;99.90;;;;;;20977044;28;20044;-51
2023/12/17 04:46:58;;;;;;;0.00;0.00;;;2.80;99.90;;;;;;20977757;28;20025;-54
2023/12/17 04:57:00;;;;;;;0.10;0.00;;;3.00;99.90;;;;;;20972314;28;20575;-63
2023/12/17 05:07:01;;;;;;;0.10;0.00;;;3.20;99.90;;;;;;20977888;28;20055;-63
2023/12/17 05:17:03;;;;;;;0.10;0.00;;;3.10;99.90;;;;;;20980400;28;20036;-62
2023/12/17 05:27:05;;;;;;;0.08;0.00;;;3.60;99.90;;;;;;20890352;28;20119;-63
2023/12/17 05:37:07;;;;;;;0.00;0.00;;;4.70;99.90;;;;;;20879021;28;20029;-63
2023/12/17 05:47:08;;;;;;;0.00;0.00;;;5.20;97.30;;;;;;20872357;28;20044;-52
2023/12/17 05:57:10;;;;;;;0.00;0.00;;;5.20;96.80;;;;;;20913885;28;20029;-63
2023/12/17 06:07:12;;;;;;;0.10;0.00;;;5.00;96.50;;;;;;20919627;28;20090;-63
2023/12/17 06:17:14;;;;;;;0.35;0.00;;;5.50;95.10;;;;;;20913396;28;20063;-64
2023/12/17 06:27:16;;;;;;;0.00;0.00;;;5.60;95.00;;;;;;20984810;28;20048;-63
2023/12/17 06:37:18;;;;;;;0.10;0.00;;;5.90;94.30;;;;;;20988648;28;20036;-51
2023/12/17 06:47:20;;;;;;;0.00;0.00;;;5.70;94.60;;;;;;20988010;28;20036;-64
2023/12/17 06:57:22;;;;;;;0.00;0.00;;;5.60;94.90;;;;;;20987278;28;20041;-63
2023/12/17 07:07:24;;;;;;;0.00;0.00;;;6.10;94.50;;;;;;20991341;28;20082;-64
2023/12/17 07:17:26;;;;;;;0.10;0.00;;;6.30;94.30;;;;;;20985727;28;20033;-63
2023/12/17 07:27:29;;;;;;;0.80;0.80;;;6.10;95.00;;;;;;20987590;28;20049;-62
2023/12/17 07:37:31;;;;;;;0.00;0.00;;;5.00;96.70;;;;;;20996689;28;20035;-57
2023/12/17 07:47:33;;;;;;;0.00;0.00;;;4.70;97.30;;;;;;21001014;28;20040;-61
2023/12/17 07:57:35;;;;;;;0.20;0.10;;;6.10;94.80;;;;;;20982141;28;20085;-52
2023/12/17 08:07:37;;;;;;;0.00;0.00;;;7.20;92.80;;;;;;20968104;28;20097;-57
2023/12/17 08:17:39;;;;;;;0.00;0.00;;;7.60;92.70;;;;;;20992325;28;20062;-61
2023/12/17 08:27:40;;;;;;;0.38;0.00;;;8.70;90.40;;;;;;20995183;28;20048;-57
2023/12/17 08:37:42;;;;;;;0.00;0.00;;;9.20;89.00;;;;;;20995951;28;20047;-60
2023/12/17 08:47:44;;;;;;;0.00;0.00;;;9.60;86.00;;;;;;20993709;28;20047;-59
2023/12/17 08:57:47;;;;;;;0.20;0.05;;;10.10;83.70;;;;;;20978446;28;20076;-53
2023/12/17 09:07:49;;;;;;;0.00;0.00;;;10.70;83.20;;;;;;20992058;28;20032;-55
2023/12/17 09:17:51;;;;;;;0.85;0.15;;;11.10;79.00;;;;;;20992216;28;20036;-60
2023/12/17 09:27:53;;;;;;;0.17;0.10;;;11.20;83.50;;;;;;20986632;28;20054;-51
2023/12/17 09:37:54;;;;;;;0.05;0.00;;;10.60;81.60;;;;;;20982537;28;20032;-53
2023/12/17 09:47:56;;;;;;;0.22;0.00;;;10.60;83.90;;;;;;20970516;28;20036;-53
2023/12/17 09:58:03;;;;;;;0.30;0.10;;;11.10;78.30;;;;;;20987833;28;20028;-60
2023/12/17 10:08:05;;;;;;;0.10;0.00;;;11.50;79.40;;;;;;20987630;28;20032;-53
2023/12/17 10:18:07;;;;;;;0.10;0.00;;;12.10;76.00;;;;;;20985749;28;20044;-56
2023/12/17 10:28:10;;;;;;;0.00;0.00;;;12.50;72.80;;;;;;20966974;28;20083;-54
2023/12/17 10:38:14;;;;;;;0.00;0.00;;;12.80;73.60;;;;;;20984751;28;20440;-53
2023/12/17 10:48:16;;;;;;;0.10;0.00;;;13.00;74.60;;;;;;20972487;28;20029;-50
2023/12/17 10:58:21;;;;;;;0.05;0.00;;;13.30;71.70;;;;;;20985071;28;20036;-54
2023/12/17 11:08:25;;;;;;;0.08;0.08;;;13.70;71.90;;;;;;20977927;28;20039;-60
2023/12/17 11:18:42;;;;;;;1.13;0.10;;;14.20;68.80;;;;;;20991038;28;20385;-54
2023/12/17 11:28:44;;;;;;;0.10;0.08;;;14.40;69.50;;;;;;20989716;28;20040;-61
2023/12/17 11:38:47;;;;;;;0.10;0.00;;;14.20;70.20;;;;;;20986086;28;20078;-53
2023/12/17 11:48:50;;;;;;;0.10;0.00;;;14.20;67.70;;;;;;20996320;28;20082;-55
2023/12/17 11:58:53;;;;;;;0.45;0.10;;;14.50;71.70;;;;;;20997847;28;20039;-54
2023/12/17 12:08:55;;;;;;;0.00;0.00;;;14.80;72.70;;;;;;20996603;28;20037;-54
2023/12/17 12:19:02;;;;;;;0.00;0.00;;;14.70;68.40;;;;;;20977717;28;20036;-55
2023/12/17 12:29:06;;;;;;;0.28;0.10;;;14.50;69.50;;;;;;20995147;28;20032;-59
2023/12/17 12:39:08;;;;;;;0.30;0.10;;;14.30;72.70;;;;;;20995931;28;20036;-55
2023/12/17 12:49:10;;;;;;;0.08;0.08;;;14.10;70.20;;;;;;20994764;28;20432;-54
2023/12/17 12:59:12;;;;;;;4.53;3.08;;;14.00;69.70;;;;;;20992595;28;20036;-53
2023/12/17 13:09:14;;;;;;;2.05;1.10;;;13.50;74.10;;;;;;20992450;28;20036;-59
2023/12/17 13:19:16;;;;;;;1.67;1.00;;;12.60;74.40;;;;;;21012176;28;20413;-60
2023/12/17 13:29:18;;;;;;;1.73;0.85;;;11.70;73.80;;;;;;20994035;28;20044;-57
2023/12/17 13:39:20;;;;;;;2.60;0.40;;;11.00;75.70;;;;;;20992326;28;20024;-52
2023/12/17 13:49:22;;;;;;;0.50;0.10;;;10.70;74.30;;;;;;20973296;28;20039;-53
2023/12/17 13:59:23;;;;;;;0.55;0.17;;;10.40;76.30;;;;;;20992906;28;20055;-60
2023/12/17 14:09:36;;;;;;;0.30;0.20;;;10.20;75.90;;;;;;20992815;28;20040;-53
2023/12/17 14:19:38;;;;;;;0.40;0.15;;;9.80;76.10;;;;;;20988392;28;20505;-53
2023/12/17 14:29:40;;;;;;;0.70;0.50;;;9.40;77.50;;;;;;20994689;28;20035;-49
2023/12/17 14:39:42;;;;;;;1.80;0.60;;;9.20;80.00;;;;;;20990295;28;20024;-53
2023/12/17 14:49:44;;;;;;;3.30;0.20;;;8.80;82.40;;;;;;21006164;28;20085;-51
2023/12/17 14:59:47;;;;;;;0.47;0.20;;;8.30;85.00;;;;;;21007026;28;20028;-52
2023/12/17 15:10:04;;;;;;;1.58;0.13;;;7.30;87.30;;;;;;20994831;28;20055;-59
2023/12/17 15:20:07;;;;;;;0.15;0.10;;;6.00;91.00;;;;;;21004289;28;20052;-54
2023/12/17 15:30:11;;;;;;;0.47;0.10;;;5.20;92.60;;;;;;21004230;28;20120;-58
2023/12/17 15:40:14;;;;;;;0.80;0.30;;;4.90;92.60;;;;;;21008230;28;20032;-58
2023/12/17 15:50:15;;;;;;;0.30;0.10;;;4.60;94.30;;;;;;21008888;28;20036;-57
2023/12/17 16:00:17;;;;;;;1.73;0.03;;;4.40;94.00;;;;;;21007903;28;20435;-60
2023/12/17 16:10:20;;;;;;;2.67;0.10;;;4.40;93.10;;;;;;21007022;28;20024;-53
2023/12/17 16:20:21;;;;;;;0.20;0.10;;;4.50;92.40;;;;;;21065007;28;20097;-60
2023/12/17 16:30:23;;;;;;;0.00;0.00;;;4.50;93.80;;;;;;21045181;28;20381;-59
2023/12/17 16:40:25;;;;;;;0.85;0.00;;;4.60;91.40;;;;;;21079433;28;20082;-51
2023/12/17 16:50:27;;;;;;;0.35;0.00;;;4.50;92.70;;;;;;21066572;28;20032;-59
2023/12/17 17:00:29;;;;;;;0.32;0.10;;;4.30;92.50;;;;;;21071498;28;20036;-49
2023/12/17 17:10:31;;;;;;;0.00;0.00;;;4.30;92.30;;;;;;21032738;28;20398;-53
2023/12/17 17:20:32;;;;;;;0.20;0.00;;;4.70;89.40;;;;;;21045107;28;20094;-54
2023/12/17 17:30:34;;;;;;;0.00;0.00;;;5.00;91.00;;;;;;20985217;28;20474;-48
2023/12/17 17:40:38;;;;;;;0.00;0.00;;;4.80;91.30;;;;;;20950099;28;20021;-60
2023/12/17 17:50:40;;;;;;;0.00;0.00;;;4.70;90.90;;;;;;20980594;28;20039;-49
2023/12/17 18:00:42;;;;;;;0.00;0.00;;;4.80;90.70;;;;;;20967997;28;20493;-59
2023/12/17 18:10:43;;;;;;;0.75;0.10;;;4.80;91.30;;;;;;20973494;28;20032;-50
2023/12/17 18:20:45;;;;;;;0.00;0.00;;;4.50;91.40;;;;;;20971392;28;20090;-59
2023/12/17 18:30:47;;;;;;;0.00;0.00;;;4.30;92.10;;;;;;20952274;28;20032;-59
2023/12/17 18:40:53;;;;;;;0.20;0.05;;;4.00;93.40;;;;;;20963928;28;20359;-57
2023/12/17 18:50:55;;;;;;;2.08;0.10;;;4.10;92.60;;;;;;20977317;28;20441;-59
2023/12/17 19:00:57;;;;;;;0.30;0.00;;;4.10;93.10;;;;;;20971463;28;20029;-59
2023/12/17 19:10:59;;;;;;;0.10;0.00;;;4.40;92.70;;;;;;20949931;28;20067;-50
2023/12/17 19:21:01;;;;;;;0.00;0.00;;;4.40;92.30;;;;;;20960237;28;20443;-58
2023/12/17 19:31:03;;;;;;;0.00;0.00;;;4.60;91.70;;;;;;20895753;28;20089;-60
2023/12/17 19:41:04;;;;;;;0.00;0.00;;;4.30;92.50;;;;;;20925309;28;20044;-60
2023/12/17 19:51:11;;;;;;;0.43;0.00;;;4.20;92.30;;;;;;20897969;28;20114;-48
2023/12/17 20:01:14;;;;;;;0.15;0.00;;;4.20;91.50;;;;;;20969000;28;20033;-51
2023/12/17 20:11:16;;;;;;;0.00;0.00;;;4.40;91.90;;;;;;20914947;28;20028;-55
2023/12/17 20:21:20;;;;;;;0.15;0.00;;;4.30;91.80;;;;;;20980405;28;20386;-53
2023/12/17 20:31:22;;;;;;;0.10;0.00;;;4.70;91.10;;;;;;20940124;28;20117;-49
2023/12/17 20:41:24;;;;;;;0.10;0.00;;;4.40;91.60;;;;;;20986917;28;20036;-47
2023/12/17 20:51:26;;;;;;;0.00;0.00;;;4.30;91.60;;;;;;20955106;28;20406;-50
2023/12/17 21:01:28;;;;;;;0.03;0.00;;;4.20;91.50;;;;;;20918980;28;20033;-60
2023/12/17 21:11:30;;;;;;;0.00;0.00;;;4.80;90.50;;;;;;20941193;28;20036;-54
2023/12/17 21:21:31;;;;;;;0.10;0.00;;;4.30;91.00;;;;;;20985710;28;20045;-55
2023/12/17 21:31:33;;;;;;;0.00;0.00;;;4.10;90.80;;;;;;20966855;28;20078;-57
2023/12/17 21:41:38;;;;;;;0.00;0.00;;;4.30;91.60;;;;;;20959594;28;20547;-52
2023/12/17 21:51:40;;;;;;;0.00;0.00;;;4.30;91.60;;;;;;20987500;28;20432;-50
2023/12/17 22:01:42;;;;;;;0.00;0.00;;;4.10;92.20;;;;;;20982236;28;20028;-59
2023/12/17 22:11:43;;;;;;;0.85;0.00;;;4.10;92.60;;;;;;20913892;28;20029;-49
2023/12/17 22:21:45;;;;;;;0.45;0.00;;;4.00;92.40;;;;;;20971118;28;20049;-48
2023/12/17 22:31:47;;;;;;;0.20;0.00;;;4.20;92.40;;;;;;20969477;28;20519;-59
2023/12/17 22:41:49;;;;;;;0.00;0.00;;;4.30;92.10;;;;;;20926086;28;20033;-59
2023/12/17 22:51:54;;;;;;;0.00;0.00;;;4.10;92.10;;;;;;20984838;28;20032;-59
2023/12/17 23:01:56;;;;;;;0.43;0.00;;;4.30;92.00;;;;;;20978517;28;20402;-47
2023/12/17 23:11:58;;;;;;;0.05;0.00;;;4.20;92.10;;;;;;20928875;28;20048;-59
2023/12/17 23:21:59;;;;;;;0.03;0.00;;;4.00;92.00;;;;;;20982311;28;20510;-51
2023/12/17 23:32:01;;;;;;;0.00;0.00;;;4.10;92.00;;;;;;20977479;28;20444;-59
2023/12/17 23:42:03;;;;;;;0.15;0.00;;;4.00;92.40;;;;;;20958929;28;20044;-49
2023/12/17 23:52:05;;;;;;;0.10;0.00;;;4.10;92.10;;;;;;21000508;28;20474;-50
